RYR24CM EDHL-LIMJ
Flight info
| Callsign | RYR24CM |
|---|---|
| Flight time | N/A |
| Altitude | 33000 |
| Route | HAM2K/25 HAM L23 ESTAD N850 NIE DCT WRB/N0451F350 N850 XAROL/N0447F340 DCT BOMBI DCT GIGET DCT ABUKA DCT KRH DCT NATOR/N0449F350 DCT TRA DCT RIPUS DCT GERSA DCT SOSON DCT ODINA DCT SRN M858 VOG |
| Aircraft | B738/M-SDE2E3FGHIRWXY/LB1 |
Departure
| Time | N/A |
|---|---|
| Airport | Lübeck Blankensee Airport (EDHL) |
Arrival
| Time | 2026-04-16 14:30 |
|---|---|
| Airport | Genoa Cristoforo Colombo Airport (LIMJ) |
| Time | Latitude | Longitude | Altitude | Speed | Heading |
|---|---|---|---|---|---|
| 2026-04-16 14:20 | 44.25063 | 9.08260 | 5508 ft | 231 kts | 177° |
| 2026-04-16 14:20 | 44.23465 | 9.08371 | 5508 ft | 229 kts | 174° |
| 2026-04-16 14:20 | 44.21878 | 9.08559 | 5506 ft | 229 kts | 174° |
| 2026-04-16 14:20 | 44.20289 | 9.08760 | 5515 ft | 230 kts | 173° |
| 2026-04-16 14:21 | 44.18702 | 9.09024 | 5510 ft | 230 kts | 163° |
| 2026-04-16 14:21 | 44.17353 | 9.10121 | 5511 ft | 225 kts | 130° |
| 2026-04-16 14:21 | 44.16683 | 9.12008 | 5491 ft | 214 kts | 96° |
| 2026-04-16 14:21 | 44.16903 | 9.13933 | 5512 ft | 196 kts | 59° |
| 2026-04-16 14:22 | 44.17822 | 9.15259 | 5356 ft | 190 kts | 36° |
| 2026-04-16 14:22 | 44.18918 | 9.16293 | 5069 ft | 190 kts | 34° |
| 2026-04-16 14:22 | 44.20025 | 9.17302 | 4762 ft | 190 kts | 33° |
| 2026-04-16 14:22 | 44.21135 | 9.18309 | 4556 ft | 191 kts | 33° |
| 2026-04-16 14:23 | 44.22258 | 9.19327 | 4538 ft | 194 kts | 33° |
| 2026-04-16 14:23 | 44.23379 | 9.20345 | 4538 ft | 200 kts | 33° |
| 2026-04-16 14:23 | 44.24720 | 9.21068 | 4499 ft | 210 kts | 2° |
| 2026-04-16 14:23 | 44.26073 | 9.20609 | 4501 ft | 202 kts | 329° |
| 2026-04-16 14:24 | 44.27209 | 9.19512 | 4500 ft | 193 kts | 324° |
| 2026-04-16 14:24 | 44.28260 | 9.18416 | 4502 ft | 190 kts | 323° |
| 2026-04-16 14:24 | 44.29332 | 9.17291 | 4515 ft | 191 kts | 323° |
| 2026-04-16 14:24 | 44.30393 | 9.16173 | 4510 ft | 192 kts | 323° |
| 2026-04-16 14:25 | 44.31449 | 9.15062 | 4504 ft | 193 kts | 323° |
| 2026-04-16 14:25 | 44.32521 | 9.13936 | 4505 ft | 193 kts | 323° |
| 2026-04-16 14:25 | 44.33591 | 9.12809 | 4486 ft | 191 kts | 323° |
| 2026-04-16 14:25 | 44.34638 | 9.11703 | 4272 ft | 188 kts | 323° |
| 2026-04-16 14:26 | 44.35511 | 9.10349 | 3896 ft | 192 kts | 295° |
| 2026-04-16 14:26 | 44.35964 | 9.08562 | 3526 ft | 196 kts | 287° |
| 2026-04-16 14:26 | 44.36349 | 9.06727 | 3224 ft | 196 kts | 288° |
| 2026-04-16 14:26 | 44.36734 | 9.04910 | 2940 ft | 194 kts | 289° |
| 2026-04-16 14:27 | 44.37121 | 9.03120 | 2670 ft | 192 kts | 289° |
| 2026-04-16 14:27 | 44.37502 | 9.01363 | 2402 ft | 186 kts | 289° |
| 2026-04-16 14:27 | 44.37871 | 8.99665 | 2140 ft | 178 kts | 288° |
| 2026-04-16 14:27 | 44.38220 | 8.98057 | 1907 ft | 168 kts | 288° |
| 2026-04-16 14:28 | 44.38551 | 8.96536 | 1672 ft | 159 kts | 287° |
| 2026-04-16 14:28 | 44.38861 | 8.95109 | 1487 ft | 149 kts | 287° |
| 2026-04-16 14:28 | 44.39156 | 8.93753 | 1272 ft | 146 kts | 287° |
| 2026-04-16 14:28 | 44.39455 | 8.92383 | 1066 ft | 149 kts | 287° |
| 2026-04-16 14:29 | 44.39757 | 8.90992 | 845 ft | 149 kts | 287° |
| 2026-04-16 14:29 | 44.40055 | 8.89628 | 644 ft | 145 kts | 287° |
| 2026-04-16 14:29 | 44.40346 | 8.88294 | 447 ft | 143 kts | 286° |
| 2026-04-16 14:29 | 44.40638 | 8.86959 | 252 ft | 143 kts | 285° |
| 2026-04-16 14:30 | 44.40917 | 8.85627 | 60 ft | 143 kts | 283° |
| 2026-04-16 14:30 | 44.41160 | 8.84367 | 10 ft | 120 kts | 284° |
| 2026-04-16 14:30 | 44.41339 | 8.83460 | 11 ft | 57 kts | 286° |
| 2026-04-16 14:30 | 44.41458 | 8.83116 | 11 ft | 18 kts | 319° |
| 2026-04-16 14:31 | 44.41533 | 8.83106 | 12 ft | 0 kts | 42° |
| 2026-04-16 14:32 | 44.41537 | 8.83112 | 11 ft | 3 kts | 44° |
| 2026-04-16 14:32 | 44.41548 | 8.83172 | 10 ft | 10 kts | 99° |
| 2026-04-16 14:32 | 44.41522 | 8.83308 | 10 ft | 18 kts | 105° |
| 2026-04-16 14:32 | 44.41483 | 8.83509 | 10 ft | 25 kts | 106° |
| 2026-04-16 14:33 | 44.41434 | 8.83760 | 9 ft | 27 kts | 105° |
| 2026-04-16 14:33 | 44.41390 | 8.83987 | 9 ft | 21 kts | 105° |
| 2026-04-16 14:33 | 44.41352 | 8.84178 | 9 ft | 20 kts | 106° |
| 2026-04-16 14:33 | 44.41315 | 8.84364 | 9 ft | 19 kts | 105° |
| 2026-04-16 14:34 | 44.41354 | 8.84473 | 9 ft | 12 kts | 51° |
| 2026-04-16 14:34 | 44.41403 | 8.84561 | 9 ft | 11 kts | 52° |
| 2026-04-16 14:34 | 44.41409 | 8.84662 | 10 ft | 11 kts | 107° |
| 2026-04-16 14:34 | 44.41390 | 8.84764 | 9 ft | 11 kts | 104° |
| 2026-04-16 14:35 | 44.41379 | 8.84818 | 10 ft | 0 kts | 105° |
| 2026-04-16 14:36 | 44.41379 | 8.84819 | 10 ft | 1 kts | 105° |
| 2026-04-16 14:36 | 44.41375 | 8.84842 | 9 ft | 4 kts | 105° |
| 2026-04-16 14:37 | 44.41367 | 8.84884 | 11 ft | 5 kts | 105° |
| 2026-04-16 14:37 | 44.41358 | 8.84928 | 9 ft | 5 kts | 105° |
| 2026-04-16 14:37 | 44.41351 | 8.84971 | 9 ft | 5 kts | 103° |
| 2026-04-16 14:37 | 44.41343 | 8.85014 | 9 ft | 5 kts | 104° |
| 2026-04-16 14:38 | 44.41335 | 8.85057 | 9 ft | 5 kts | 104° |
| 2026-04-16 14:38 | 44.41345 | 8.85095 | 10 ft | 5 kts | 33° |
| 2026-04-16 14:38 | 44.41375 | 8.85109 | 10 ft | 5 kts | 20° |
| 2026-04-16 14:38 | 44.41397 | 8.85119 | 9 ft | 0 kts | 19° |